• Join FlightAware (Why Join?)
  • Login
  • US Flag 
02:52PM EST


 

Airport Tracker/Info


-or-


 

Live Flight TrackerFlight Track Log ✈ N72AF ✈ 20-Jun-2014 ✈ KBTR - KADS

Flight Track Log - Related Links

Times and Time Zones

All times are in EDT time to prevent confusion due to time zone crossing. See the N72AF flight status page for this flight to view local times or setup timezone preferences in your user account.

Time Position Orientation Groundspeed Altitude Reporting Facility
EDT Latitude Longitude Course Direction KTS MPH feet Rate Location/Type
10:08AM 30.5961 -91.2378 296° West 123 142 6,600  Level Houston Center
10:09AM 30.6097 -91.2733 294° West 123 142 6,500 -60 Descending Houston Center
10:10AM 30.6258 -91.3075 299° West 122 140 6,500  Level Houston Center
10:11AM 30.6433 -91.3414 301° West 122 140 6,500  Level Houston Center
10:12AM 30.6315 -91.3567 297° West  Level FlightAware Approximate
10:12AM 30.6661 -91.3803 304° West 122 140 6,500  Level Houston Center
10:12AM 30.6728 -91.3931 301° West 120 138 6,400  Descending Houston Center
10:13AM 30.6481 -91.3956 296° West  Level FlightAware Approximate
10:13AM 30.6861 -91.4142 306° West 122 140 6,500  Level Houston Center
10:14AM 30.6997 -91.4436 298° West 122 140 6,400  Descending Houston Center
10:14AM 30.6994 -91.4503 267° West 122 140 6,500  Climbing Houston Center
10:14AM 30.7097 -91.4669 306° West 121 139 6,400  Descending Houston Center
10:15AM 30.7189 -91.4825 304° West 122 140 6,500  Climbing Houston Center
10:15AM 30.7292 -91.5014 302° West 122 140 6,400  Descending Houston Center
10:16AM 30.7400 -91.5142 315° West 122 140 6,500  Climbing Houston Center
10:16AM 30.7503 -91.5333 302° West 122 140 6,400  Descending Houston Center
10:17AM 30.7581 -91.5478 302° West 122 140 6,500  Climbing Houston Center
10:17AM 30.7656 -91.5681 293° West 124 143 6,400  Descending Houston Center
10:18AM 30.7697 -91.5847 286° West 122 140 6,500  Climbing Houston Center
10:18AM 30.7769 -91.6083 290° West 121 139 6,400  Descending Houston Center
10:19AM 30.7842 -91.6283 293° West 122 140 6,500  Climbing Houston Center
10:19AM 30.7903 -91.6458 292° West 120 138 6,400  Descending Houston Center
10:20AM 30.7981 -91.6639 297° West 121 139 6,500  Climbing Houston Center
10:20AM 30.8031 -91.6783 292° West 121 139 6,400 -120 Descending Houston Center
10:21AM 30.8117 -91.6994 295° West 121 139 6,400 -120 Level Houston Center
10:21AM 30.8161 -91.7136 290° West 121 139 6,300 60 Descending Houston Center
10:22AM 30.8242 -91.7353 293° West 121 139 6,500 60 Climbing Houston Center
10:22AM 30.8292 -91.7486 294° West 119 137 6,400  Descending Houston Center
10:23AM 30.8336 -91.7717 283° West 119 137 6,500 60 Climbing Houston Center
10:23AM 30.8403 -91.7864 298° West 118 136 6,500 60 Level Houston Center
10:24AM 30.8469 -91.8061 291° West 119 137 6,600  Climbing Houston Center
10:25AM 30.8536 -91.8264 291° West 119 137 6,500  Descending Houston Center
10:25AM 30.8586 -91.8503 284° West 119 137 6,600  Climbing Houston Center
10:26AM 30.8625 -91.8619 291° West 117 135 6,500  Descending Houston Center
10:26AM 30.8708 -91.8853 293° West 118 136 6,600  Climbing Houston Center
10:27AM 30.8778 -91.8994 300° West 116 133 6,500  Descending Houston Center
10:27AM 30.8878 -91.9197 300° West 119 137 6,600  Climbing Houston Center
10:27AM 30.8922 -91.9272 305° West 119 137 6,500  Descending Houston Center
10:28AM 30.8942 -91.9553 275° West 118 136 6,600  Climbing Houston Center
10:28AM 30.8908 -91.9661 250° West 118 136 6,500  Descending Houston Center
10:29AM 30.8986 -91.9908 290° West 115 132 6,600  Climbing Houston Center
10:30AM 30.9086 -92.0106 301° West 117 135 6,500  Descending Houston Center
10:30AM 30.9203 -92.0314 303° West 119 137 6,600  Climbing Houston Center
10:31AM 30.9256 -92.0406 304° West 119 137 6,500  Descending Houston Center
10:31AM 30.9378 -92.0636 302° West 119 137 6,600  Climbing Houston Center
10:32AM 30.9444 -92.0728 310° West 121 139 6,500  Descending Houston Center
10:32AM 30.9558 -92.0958 300° West 120 138 6,600  Climbing Houston Center
10:33AM 30.9617 -92.1078 300° West 119 137 6,500  Descending Houston Center
10:33AM 30.9742 -92.1289 305° West 119 137 6,600  Climbing Houston Center
10:34AM 30.9786 -92.1400 295° West 119 137 6,500  Descending Houston Center
10:35AM 30.9906 -92.1614 303° West 119 137 6,600 60 Climbing Houston Center
10:35AM 30.9958 -92.1750 294° West 120 138 6,600 60 Level Houston Center
10:36AM 31.0050 -92.1964 297° West 119 137 6,700  Climbing Houston Center
10:36AM 31.0106 -92.2078 300° West 117 135 6,600  Descending Houston Center
10:37AM 31.0275 -92.2342 307° West 119 137 6,700  Climbing Houston Center
10:38AM 31.0464 -92.2700 302° West 119 137 6,600  Descending Houston Center
10:39AM 31.0567 -92.3022 290° West 119 137 6,700 60 Climbing Houston Center
10:40AM 31.0717 -92.3347 298° West 118 136 6,800  Climbing Houston Center
10:41AM 31.0908 -92.3706 302° West 118 136 6,700 -180 Descending Houston Center
10:42AM 31.1097 -92.4028 304° West 123 142 6,500 -180 Descending Houston Center
10:43AM 31.1331 -92.4372 308° West 128 147 6,400 -120 Descending Houston Center
10:44AM 31.1583 -92.4692 313° West 125 144 6,300 -120 Descending Houston Center
10:45AM 31.1789 -92.4964 311° West 122 140 6,200 -60 Descending Houston Center
10:46AM 31.2000 -92.5286 307° West 120 138 6,200  Level Houston Center
10:47AM 31.2231 -92.5631 308° West 120 138 6,200 60 Level Houston Center
10:48AM 31.2378 -92.5933 300° West 107 123 6,400 120 Climbing Houston Center
10:49AM 31.2525 -92.6261 298° West 112 129 6,500  Climbing Houston Center
10:50AM 31.2672 -92.6589 298° West 115 132 6,500 60 Level Houston Center
10:50AM 31.2683 -92.6642 284° West 111 128 6,600 60 Climbing Houston Center
10:51AM 31.2781 -92.6947 290° West 114 131 6,600 60 Level Houston Center
10:51AM 31.2800 -92.6989 299° West 111 128 6,700  Climbing Houston Center
10:52AM 31.2925 -92.7275 297° West 114 131 6,600  Descending Houston Center
10:52AM 31.2964 -92.7308 324° Northwest 112 129 6,700  Climbing Houston Center
10:53AM 31.3094 -92.7600 298° West 116 133 6,600  Descending Houston Center
10:53AM 31.3133 -92.7636 322° Northwest 114 131 6,700 60 Climbing Houston Center
10:54AM 31.3281 -92.7903 303° West 117 135 6,700 60 Level Houston Center
10:54AM 31.3325 -92.7939 325° Northwest 115 132 6,800  Climbing Houston Center
10:55AM 31.3469 -92.8228 300° West 115 132 6,700  Descending Houston Center
10:55AM 31.3494 -92.8258 314° West 114 131 6,800 -120 Climbing Houston Center
10:56AM 31.3661 -92.8600 300° West 117 135 6,600 -120 Descending Houston Center
10:56AM 31.3692 -92.8664 299° West 116 133 6,700 -120 Climbing Houston Center
10:57AM 31.3828 -92.8903 304° West 122 140 6,500 -120 Descending Houston Center
10:57AM 31.3883 -92.8992 306° West 118 136 6,600 -120 Climbing Houston Center
10:58AM 31.4039 -92.9275 303° West 122 140 6,400 -120 Descending Houston Center
10:58AM 31.4069 -92.9311 315° West 119 137 6,500  Climbing Houston Center
10:59AM 31.4206 -92.9603 299° West 120 138 6,400  Descending Houston Center
10:59AM 31.4231 -92.9644 305° West 118 136 6,500 60 Climbing Houston Center
11:00AM 31.4383 -92.9989 297° West 118 136 6,500 -120 Level Houston Center
11:01AM 31.4472 -93.0167 300° West 117 135 6,400 60 Descending Houston Center
11:01AM 31.4556 -93.0314 304° West 118 136 6,600 180 Climbing Houston Center
11:02AM 31.4639 -93.0494 298° West 114 131 6,600 -120 Level Houston Center
11:03AM 31.4747 -93.0694 302° West 117 135 6,500  Descending Houston Center
11:03AM 31.4825 -93.0794 312° West 116 133 6,600 60 Climbing Houston Center
11:04AM 31.4961 -93.0967 313° West 115 132 6,600  Level Houston Center
11:04AM 31.5011 -93.1097 294° West 114 131 6,600  Level Houston Center
11:05AM 31.5100 -93.1306 297° West 115 132 6,600 -120 Level Houston Center
11:05AM 31.5158 -93.1428 299° West 116 133 6,500 -120 Descending Houston Center
11:06AM 31.5253 -93.1653 296° West 116 133 6,500  Level Houston Center
11:06AM 31.5306 -93.1781 296° West 116 133 6,500  Level Houston Center
11:07AM 31.5403 -93.1981 300° West 116 133 6,500  Level Houston Center
11:07AM 31.5453 -93.2136 291° West 115 132 6,500  Level Houston Center
11:08AM 31.5542 -93.2389 292° West 115 132 6,500  Level Houston Center
11:08AM 31.5603 -93.2539 296° West 115 132 6,500  Level Houston Center
11:09AM 31.5689 -93.2739 297° West 117 135 6,500  Level Houston Center
11:09AM 31.5725 -93.2847 291° West 114 131 6,500  Level Houston Center
11:10AM 31.5811 -93.3075 294° West 116 133 6,500  Level Houston Center
11:10AM 31.5831 -93.3203 280° West 112 129 6,500  Level Houston Center
11:11AM 31.5914 -93.3419 294° West 115 132 6,500  Level Houston Center
11:11AM 31.5956 -93.3536 293° West 114 131 6,500  Level Houston Center
11:12AM 31.6056 -93.3750 299° West 114 131 6,500  Level Houston Center
11:12AM 31.6103 -93.3892 291° West 115 132 6,500  Level Houston Center
11:13AM 31.6200 -93.4081 301° West 114 131 6,500  Level Houston Center
11:13AM 31.6250 -93.4247 289° West 115 132 6,500  Level Houston Center
11:14AM 31.6328 -93.4514 289° West 117 135 6,500  Level Houston Center
11:15AM 31.6469 -93.4836 297° West 113 130 6,500  Level Houston Center
11:16AM 31.6594 -93.5175 293° West 113 130 6,500  Level Houston Center
11:17AM 31.6756 -93.5500 300° West 113 130 6,600  Climbing Houston Center
11:18AM 31.6892 -93.5822 296° West 113 130 6,600  Level Houston Center
11:19AM 31.7025 -93.6175 294° West 113 130 6,600  Level Houston Center
11:20AM 31.7175 -93.6506 298° West 113 130 6,600  Level Houston Center
11:21AM 31.7300 -93.6919 290° West 113 130 6,700  Climbing Houston Center
11:22AM 31.7422 -93.7253 293° West 113 130 6,700  Level Houston Center
11:23AM 31.7542 -93.7592 293° West 113 130 6,700  Level Houston Center
11:24AM 31.7683 -93.7928 296° West 113 130 6,700  Level Houston Center
11:25AM 31.7814 -93.8275 294° West 115 132 6,700  Level Houston Center
11:26AM 31.7994 -93.8653 299° West 116 133 6,700 -60 Level Houston Center
11:27AM 31.8122 -93.9000 293° West 115 132 6,600 -120 Descending Houston Center
11:28AM 31.8261 -93.9347 295° West 117 135 6,500 -60 Descending Houston Center
11:29AM 31.8397 -93.9706 294° West 118 136 6,500  Level Houston Center
11:30AM 31.8567 -94.0114 296° West 116 133 6,500  Level Houston Center
11:32AM 31.8700 -94.0450 295° West 116 133 6,500  Level Houston Center
11:33AM 31.8822 -94.0789 293° West 116 133 6,600  Climbing Houston Center
11:34AM 31.8942 -94.1131 292° West 115 132 6,600  Level Houston Center
11:35AM 31.9133 -94.1619 295° West 113 130 6,700  Climbing Fort Worth Center
11:36AM 31.9283 -94.2003 295° West 114 131 6,700 -60 Level Fort Worth Center
11:37AM 31.9383 -94.2367 288° West 115 132 6,600 -60 Descending Fort Worth Center
11:38AM 31.9494 -94.2756 289° West 115 132 6,600  Level Fort Worth Center
11:39AM 31.9564 -94.3111 283° West 115 132 6,700  Climbing Fort Worth Center
11:40AM 31.9697 -94.3492 292° West 115 132 6,700 -120 Level Fort Worth Center
11:41AM 31.9831 -94.3828 295° West 121 139 6,500 -120 Descending Fort Worth Center
11:42AM 31.9953 -94.4186 292° West 121 139 6,500  Level Fort Worth Center
11:43AM 32.0075 -94.4533 293° West 120 138 6,500  Level Fort Worth Center
11:44AM 32.0222 -94.4958 292° West 120 138 6,600  Climbing Fort Worth Center
11:45AM 32.0378 -94.5306 298° West 120 138 6,500 -60 Descending Fort Worth Center
11:46AM 32.0511 -94.5644 295° West 119 137 6,500  Level Fort Worth Center
11:47AM 32.0661 -94.5992 297° West 119 137 6,500 -60 Level Fort Worth Center
11:48AM 32.0808 -94.6325 298° West 119 137 6,400  Descending Fort Worth Center
11:50AM 32.0958 -94.6686 296° West 119 137 6,500 60 Climbing Fort Worth Center
11:51AM 32.1128 -94.7081 297° West 118 136 6,600  Climbing Fort Worth Center
11:52AM 32.1236 -94.7425 290° West 117 135 6,600  Level Fort Worth Center
11:53AM 32.1375 -94.7761 296° West 116 133 6,600  Level Fort Worth Center
11:54AM 32.1522 -94.8094 298° West 115 132 6,600  Level Fort Worth Center
11:55AM 32.1697 -94.8428 302° West 115 132 6,600 -60 Level Fort Worth Center
11:56AM 32.1894 -94.8828 300° West 117 135 6,500 -60 Descending Fort Worth Center
11:57AM 32.2008 -94.9164 292° West 116 133 6,500  Level Fort Worth Center
11:58AM 32.2128 -94.9489 293° West 116 133 6,500  Level Fort Worth Center
11:59AM 32.2281 -94.9858 296° West 116 133 6,500  Level Fort Worth Center
12:00PM 32.2428 -95.0189 298° West 116 133 6,600  Climbing Fort Worth Center
12:01PM 32.2569 -95.0547 295° West 116 133 6,600  Level Fort Worth Center
12:02PM 32.2711 -95.0975 291° West 117 135 6,600  Level Fort Worth Center
12:03PM 32.2831 -95.1344 291° West 117 135 6,600  Level Fort Worth Center
12:04PM 32.2975 -95.1694 296° West 117 135 6,600 -60 Level Fort Worth Center
12:05PM 32.3117 -95.2036 296° West 117 135 6,500  Descending Fort Worth Center
12:06PM 32.3256 -95.2400 294° West 117 135 6,600  Climbing Fort Worth Center
12:07PM 32.3392 -95.2756 294° West 119 137 6,600 -60 Level Fort Worth Center
12:08PM 32.3525 -95.3194 290° West 119 137 6,500  Descending Fort Worth Center
12:09PM 32.3656 -95.3561 293° West 118 136 6,600  Climbing Fort Worth Center
12:10PM 32.3822 -95.3903 300° West 119 137 6,600  Level Fort Worth Center
12:11PM 32.3997 -95.4231 302° West 120 138 6,600  Level Fort Worth Center
12:12PM 32.4172 -95.4564 302° West 119 137 6,600  Level Fort Worth Center
12:13PM 32.4350 -95.4889 303° West 119 137 6,700  Climbing Fort Worth Center
12:14PM 32.4519 -95.5239 300° West 121 139 6,600 -120 Descending Fort Worth Center
12:15PM 32.4778 -95.5619 309° West 122 140 6,500 -60 Descending Fort Worth Center
12:16PM 32.5019 -95.5917 314° West 123 142 6,500  Level Fort Worth Center
12:17PM 32.5278 -95.6244 313° West 123 142 6,500  Level Fort Worth Center
12:19PM 32.5456 -95.6503 309° West 118 136 6,500  Level Fort Worth Center
12:20PM 32.5678 -95.6858 307° West 119 137 6,600  Climbing Fort Worth Center
12:21PM 32.5886 -95.7203 306° West 119 137 6,600  Level Fort Worth Center
12:22PM 32.6069 -95.7539 303° West 119 137 6,600  Level Fort Worth Center
12:23PM 32.6278 -95.7881 306° West 119 137 6,600 -60 Level Fort Worth Center
12:24PM 32.6525 -95.8167 316° Northwest 122 140 6,500 -60 Descending Fort Worth Center
12:25PM 32.6789 -95.8481 315° West 123 142 6,500  Level Fort Worth Center
12:26PM 32.6997 -95.8800 308° West 123 142 6,500  Level Fort Worth Center
12:27PM 32.7197 -95.9161 303° West 123 142 6,500  Level Fort Worth Center
12:28PM 32.7364 -95.9506 300° West 122 140 6,500 -60 Level Fort Worth Center
12:29PM 32.7542 -95.9897 298° West 122 140 6,400  Descending Fort Worth Center
12:30PM 32.7717 -96.0225 302° West 121 139 6,500  Climbing Fort Worth Center
12:31PM 32.7922 -96.0550 307° West 122 140 6,500  Level Fort Worth Center
12:32PM 32.8167 -96.0881 311° West 122 140 6,500  Level Fort Worth Center
12:33PM 32.8375 -96.1208 307° West 122 140 6,500  Level Fort Worth Center
12:34PM 32.8586 -96.1556 306° West 122 140 6,500  Level Fort Worth Center
12:35PM 32.8769 -96.1889 303° West 122 140 6,500 -120 Level Fort Worth Center
12:36PM 32.8881 -96.2289 288° West 120 138 6,300 -300 Descending Fort Worth Center
12:37PM 32.8986 -96.2650 289° West 119 137 5,900 -540 Descending Fort Worth Center
12:38PM 32.9039 -96.3069 279° West 118 136 5,200 -720 Descending Fort Worth Center
12:39PM 32.9086 -96.3464 278° West 119 137 4,500 -360 Descending Fort Worth Center
12:40PM 32.9131 -96.3867 277° West 116 133 4,500  Level Fort Worth Center
12:41PM 32.9175 -96.4228 278° West 113 130 4,500 -300 Level Fort Worth Center
12:42PM 32.9156 -96.4614 267° West 114 131 3,900 -540 Descending Fort Worth Center
12:43PM 32.9167 -96.5025 272° West 117 135 3,500 -240 Descending Fort Worth Center
12:44PM 32.9150 -96.5361 267° West 105 121 3,500  Level Fort Worth Center
12:45PM 32.9131 -96.5739 267° West 105 121 3,500 -240 Level Fort Worth Center
12:46PM 32.9131 -96.6119 270° West 114 131 3,100 -240 Descending Fort Worth Center
12:47PM 32.9206 -96.6483 284° West 116 133 3,100 -180 Level Fort Worth Center
12:49PM 32.9142 -96.6867 259° West 111 128 2,800 -300 Descending Fort Worth Center
12:50PM 32.9158 -96.7244 273° West 116 133 2,500 -180 Descending Fort Worth Center
12:51PM 32.9294 -96.7614 294° West 115 132 2,500 -120 Level Fort Worth Center
12:52PM 32.9442 -96.7919 300° West 110 127 2,300 -360 Descending Fort Worth Center
12:53PM 32.9667 -96.8164 318° Northwest 106 122 1,800 -360 Descending Fort Worth Center
12:54PM 32.9950 -96.8292 339° North 106 122 1,600 -300 Descending Fort Worth Center
12:55PM 32.9875 -96.8442 239° Southwest 80 92 1,300 -300 Descending Fort Worth Center
12:56PM 32.9694 -96.8328 152° Southeast 72 83 1,100 -240 Descending Fort Worth Center